This is the latest recevied weather packets stored in our database for station/object K2MRS. If no packets are shown the sender has not sent any weather packets the latest 10 day(s).
| Time | Temp. | Humidity | Pressure | Rain* | Wind** | Luminosity | Snow |
|---|---|---|---|---|---|---|---|
| 1778011915 | 15.56° C | 81% | 1016.9 hPa | 0 mm | - | 362 W/m² | - |
| 1778011613 | 15° C | 82% | 1016.8 hPa | 0 mm | - | 411 W/m² | - |
| 1778011314 | 15° C | 82% | 1016.9 hPa | 0 mm | - | 350 W/m² | - |
| 1778011017 | 15° C | 82% | 1016.8 hPa | 0 mm | - | 320 W/m² | - |
| 1778010714 | 14.44° C | 81% | 1016.8 hPa | 0 mm | - | 262 W/m² | - |
| 1778010414 | 14.44° C | 82% | 1016.8 hPa | 0 mm | - | 251 W/m² | - |
| 1778010114 | 15° C | 81% | 1016.8 hPa | 0 mm | - | 253 W/m² | - |
| 1778009815 | 15° C | 80% | 1016.8 hPa | 0 mm | - | 257 W/m² | - |
| 1778009514 | 15° C | 80% | 1016.8 hPa | 0 mm | - | 244 W/m² | - |
| 1778009213 | 15° C | 80% | 1016.8 hPa | 0 mm | - | 216 W/m² | - |
| 1778008914 | 15.56° C | 80% | 1016.9 hPa | 0 mm | - | 174 W/m² | - |
| 1778008613 | 15.56° C | 79% | 1016.8 hPa | 0 mm | - | 174 W/m² | - |
| 1778008312 | 15.56° C | 80% | 1016.8 hPa | 0 mm | - | 197 W/m² | - |
| 1778008013 | 15.56° C | 79% | 1016.8 hPa | 0 mm | - | 343 W/m² | - |
| 1778007710 | 15.56° C | 80% | 1016.8 hPa | 0 mm | - | 297 W/m² | - |
| 1778007537 | 15.56° C | 81% | 1016.7 hPa | 0 mm | - | 367 W/m² | - |
| 1778007109 | 15° C | 81% | 1016.8 hPa | 0 mm | - | 316 W/m² | - |
| 1778006810 | 15° C | 81% | 1016.6 hPa | 0 mm | - | 369 W/m² | - |
| 1778006509 | 14.44° C | 82% | 1016.3 hPa | 0 mm | - | 777 W/m² | - |
| 1778006210 | 14.44° C | 84% | 1016.7 hPa | 0 mm | - | 390 W/m² | - |
| 1778005910 | 14.44° C | 83% | 1016.7 hPa | 0 mm | - | 299 W/m² | - |
| 1778005610 | 14.44° C | 84% | 1016.7 hPa | 0 mm | - | 353 W/m² | - |
| 1778005309 | 13.89° C | 85% | 1016.7 hPa | 0 mm | - | 366 W/m² | - |
| 1778005010 | 13.89° C | 86% | 1016.6 hPa | 0 mm | - | 359 W/m² | - |
| 1778004709 | 13.89° C | 86% | 1016.7 hPa | 0 mm | - | 178 W/m² | - |
* Rain latest hour (hover to see other rain measurements)
** Current wind speed in m/s (hover to see current wind gust speed)